Ayers Rock, Northern Territory

1:59 AM ACST on September 01, 2016 (GMT +0930)
Ayers Rock (Connellan) | | Change Station

Elev 1627 ft 25.19 °S, 130.98 °E | Updated 29 minutes ago

Clear
Clear
54 °F
Feels Like 54 °F
N
6
Wind Variable Wind from South

Today
High -- | Low -- °F
--% Chance of Precip.
Yesterday
High -- | Low -- °F
Precip. -- in
Pressure 29.92 in
Visibility 6.2 miles
Clouds
Dew Point 50 °F
Humidity 88%
Rainfall 0.00 in
Snow Depth Not available.
6:58 AM 6:34 PM
Waning Crescent, 1% visible
METAR YAYE 311600Z AUTO 19005KT 150V220 9999 // NCD 12/10 Q1013
Pressure 29.92 in
Visibility 6.2 miles
Clouds
Dew Point 50 °F
Humidity 88%
Rainfall 0.00 in
Snow Depth Not available.
6:58 AM 6:34 PM
Waning Crescent, 1% visible
METAR YAYE 311600Z AUTO 19005KT 150V220 9999 // NCD 12/10 Q1013

10-Day Weather Forecast

No radar image for this location.
×

Almanac

Astronomy

Sep. 01, 2016 Rise Set
Actual Time
Civil Twilight
Nautical Twilight
Astronomical Twilight
Moon
Length of Visible Light
Length of Day
Tomorrow will be .
, % of the Moon is Illuminated

Today's Extremes

Country Highs Country Lows

Community

WunderPhotos

Upload Photos

1,936,109 photos uploaded!

WunderBlog® & News

Nearby

Air Quality

  Air Quality AQ Index Pollutant
Not available.

Snow Depth

Station Depth Elevation

Earthquake Activity

City Distance Mag. Time & Date
Minimum magnitude displayed is 2.5.

Coastal Water Temperatures

Place Temperature

Stations

Nearby Weather Stations

Station Location Temp. Windchill Dew Point Humidity Wind Precip. Elev Updated Type